Time;durP1;ratioP1;P1;durP2;ratioP2;P2;SDS_P1;SDS_P2;PMS_P1;PMS_P2;Temp;Humidity;BMP_temperature;BMP_pressure;BME280_temperature;BME280_humidity;BME280_pressure;Samples;Min_cycle;Max_cycle;Signal;HPM_P1;HPM_P2
2022/04/18 00:00:36;;;;;;;18.38;14.50;;;;;;;;;;5096314;28;20193;-72
2022/04/18 00:03:04;;;;;;;19.55;14.00;;;;;;;;;;5095986;28;20712;-72
2022/04/18 00:05:32;;;;;;;17.75;14.90;;;;;;;;;;5095757;28;20656;-72
2022/04/18 00:08:01;;;;;;;18.48;13.98;;;;;;;;;;5096180;28;20203;-72
2022/04/18 00:10:28;;;;;;;18.60;13.90;;;;;;;;;;5096100;28;20223;-72
2022/04/18 00:12:55;;;;;;;20.00;14.15;;;;;;;;;;5096175;28;20295;-72
2022/04/18 00:15:23;;;;;;;20.63;14.50;;;;;;;;;;5095943;28;20197;-72
2022/04/18 00:17:50;;;;;;;17.13;13.35;;;;;;;;;;5095119;28;20219;-72
2022/04/18 00:20:18;;;;;;;20.00;14.43;;;;;;;;;;5095910;28;20205;-71
2022/04/18 00:22:45;;;;;;;18.75;13.52;;;;;;;;;;5095599;28;20192;-71
2022/04/18 00:25:13;;;;;;;23.60;14.18;;;;;;;;;;5095469;28;20206;-71
2022/04/18 00:27:40;;;;;;;18.65;13.05;;;;;;;;;;5096605;28;20200;-71
2022/04/18 00:30:08;;;;;;;16.48;12.27;;;;;;;;;;5095633;28;20239;-71
2022/04/18 00:32:35;;;;;;;16.42;13.10;;;;;;;;;;5095300;28;20206;-71
2022/04/18 00:35:03;;;;;;;22.85;12.32;;;;;;;;;;5095208;28;20204;-72
2022/04/18 00:37:30;;;;;;;15.57;12.13;;;;;;;;;;5096021;28;20219;-71
2022/04/18 00:39:58;;;;;;;18.67;12.57;;;;;;;;;;5095874;28;20204;-72
2022/04/18 00:42:26;;;;;;;15.20;12.60;;;;;;;;;;5095226;28;20621;-72
2022/04/18 00:44:53;;;;;;;13.95;11.10;;;;;;;;;;5095356;28;20201;-71
2022/04/18 00:47:21;;;;;;;13.82;11.13;;;;;;;;;;5094908;28;20322;-72
2022/04/18 00:49:48;;;;;;;15.57;12.63;;;;;;;;;;5095001;28;20242;-71
2022/04/18 00:52:15;;;;;;;14.43;11.45;;;;;;;;;;5095324;28;20200;-71
2022/04/18 00:54:43;;;;;;;18.52;11.50;;;;;;;;;;5094797;28;20289;-71
2022/04/18 00:57:11;;;;;;;12.77;10.80;;;;;;;;;;5094963;28;20231;-71
2022/04/18 00:59:40;;;;;;;12.57;9.88;;;;;;;;;;5095028;28;20196;-71
2022/04/18 01:02:13;;;;;;;12.63;10.10;;;;;;;;;;5095561;28;20197;-71
2022/04/18 01:04:40;;;;;;;11.80;10.05;;;;;;;;;;5094989;28;20195;-72
2022/04/18 01:07:07;;;;;;;9.18;8.25;;;;;;;;;;5095034;28;20200;-71
2022/04/18 01:09:34;;;;;;;13.35;9.85;;;;;;;;;;5095137;28;20195;-71
2022/04/18 01:12:02;;;;;;;13.27;10.07;;;;;;;;;;5094590;28;20657;-71
2022/04/18 01:14:29;;;;;;;12.10;9.18;;;;;;;;;;5095309;28;20306;-71
2022/04/18 01:16:57;;;;;;;13.38;8.77;;;;;;;;;;5094661;28;20310;-71
2022/04/18 01:19:25;;;;;;;10.93;8.52;;;;;;;;;;5094382;28;20202;-71
2022/04/18 01:21:53;;;;;;;11.38;9.18;;;;;;;;;;5094643;28;20227;-71
2022/04/18 01:29:54;;;;;;;10.68;8.68;;;;;;;;;;5093700;28;20182;-71
2022/04/18 01:32:21;;;;;;;16.40;9.07;;;;;;;;;;5094909;28;20202;-71
2022/04/18 01:34:48;;;;;;;12.27;8.77;;;;;;;;;;5094521;28;20291;-71
2022/04/18 01:37:17;;;;;;;12.43;9.48;;;;;;;;;;5094190;28;20219;-71
2022/04/18 01:39:44;;;;;;;10.02;7.57;;;;;;;;;;5094400;28;20239;-71
2022/04/18 01:42:11;;;;;;;12.27;8.57;;;;;;;;;;5093852;28;20291;-72
2022/04/18 01:44:39;;;;;;;9.63;8.60;;;;;;;;;;5094345;28;20205;-73
2022/04/18 01:47:06;;;;;;;14.68;8.68;;;;;;;;;;5094474;28;20233;-72
2022/04/18 01:49:33;;;;;;;14.80;9.00;;;;;;;;;;5094331;28;20672;-71
2022/04/18 01:52:01;;;;;;;10.13;8.15;;;;;;;;;;5093819;28;20196;-72
2022/04/18 01:54:29;;;;;;;11.07;8.45;;;;;;;;;;5094129;28;20306;-72
2022/04/18 01:56:57;;;;;;;11.52;9.10;;;;;;;;;;5093479;28;20195;-72
2022/04/18 01:59:24;;;;;;;12.27;8.50;;;;;;;;;;5094076;28;20251;-71
2022/04/18 02:01:51;;;;;;;13.35;9.20;;;;;;;;;;5093969;28;20192;-71
2022/04/18 02:04:18;;;;;;;15.90;9.43;;;;;;;;;;5093956;28;20236;-72
2022/04/18 02:06:45;;;;;;;12.45;8.88;;;;;;;;;;5094060;28;20232;-72
2022/04/18 02:09:13;;;;;;;14.45;8.75;;;;;;;;;;5093893;28;20194;-71
2022/04/18 02:11:41;;;;;;;10.98;9.25;;;;;;;;;;5093801;28;20205;-71
2022/04/18 02:14:08;;;;;;;12.32;9.20;;;;;;;;;;5093922;28;20639;-71
2022/04/18 02:16:35;;;;;;;13.75;9.43;;;;;;;;;;5093411;28;20747;-71
2022/04/18 02:19:03;;;;;;;13.75;8.88;;;;;;;;;;5093928;28;20224;-71
2022/04/18 02:21:30;;;;;;;13.00;9.50;;;;;;;;;;5093593;28;20194;-72
2022/04/18 02:23:57;;;;;;;13.07;9.35;;;;;;;;;;5093744;28;20192;-71
2022/04/18 02:26:24;;;;;;;14.85;9.73;;;;;;;;;;5093831;28;20200;-72
2022/04/18 02:28:53;;;;;;;12.65;9.43;;;;;;;;;;5093969;28;20683;-72
2022/04/18 02:31:20;;;;;;;10.60;8.75;;;;;;;;;;5093502;28;20199;-71
2022/04/18 02:33:47;;;;;;;10.88;9.45;;;;;;;;;;5093607;28;20287;-71
2022/04/18 02:36:14;;;;;;;13.23;9.50;;;;;;;;;;5093456;28;20206;-72
2022/04/18 02:38:41;;;;;;;11.27;9.50;;;;;;;;;;5093137;28;20220;-72
2022/04/18 02:41:08;;;;;;;14.43;10.48;;;;;;;;;;5093316;28;20625;-71
2022/04/18 02:43:36;;;;;;;13.80;10.20;;;;;;;;;;5093473;28;20306;-71
2022/04/18 02:46:04;;;;;;;11.35;10.00;;;;;;;;;;5093196;28;20229;-71
2022/04/18 02:48:31;;;;;;;14.48;10.65;;;;;;;;;;5093629;28;20561;-71
2022/04/18 02:50:58;;;;;;;12.82;10.82;;;;;;;;;;5093038;28;20565;-71
2022/04/18 02:53:26;;;;;;;15.85;11.25;;;;;;;;;;5093068;28;20196;-72
2022/04/18 02:55:53;;;;;;;14.00;11.27;;;;;;;;;;5093381;28;20202;-72
2022/04/18 02:58:20;;;;;;;15.70;11.60;;;;;;;;;;5093345;28;20224;-72
2022/04/18 03:00:47;;;;;;;23.95;11.40;;;;;;;;;;5093288;28;20327;-72
2022/04/18 03:03:16;;;;;;;18.00;12.13;;;;;;;;;;5093265;28;20548;-72
2022/04/18 03:05:43;;;;;;;16.90;12.60;;;;;;;;;;5093367;28;20203;-72
2022/04/18 03:08:10;;;;;;;16.35;12.00;;;;;;;;;;5092916;28;20199;-72
2022/04/18 03:13:22;;;;;;;16.98;12.82;;;;;;;;;;5093045;28;20179;-72
2022/04/18 03:15:49;;;;;;;15.68;13.25;;;;;;;;;;5093238;28;20198;-72
2022/04/18 03:18:18;;;;;;;22.38;13.73;;;;;;;;;;5092755;28;20222;-72
2022/04/18 03:20:45;;;;;;;16.80;13.60;;;;;;;;;;5093628;28;20222;-72
2022/04/18 03:23:12;;;;;;;16.50;12.30;;;;;;;;;;5093251;28;20553;-71
2022/04/18 03:25:39;;;;;;;20.75;13.68;;;;;;;;;;5093271;28;20220;-71
2022/04/18 03:28:06;;;;;;;18.63;14.00;;;;;;;;;;5092674;28;20200;-72
2022/04/18 03:30:34;;;;;;;20.25;14.77;;;;;;;;;;5093487;28;20206;-72
2022/04/18 03:33:01;;;;;;;22.83;14.23;;;;;;;;;;5092909;28;20195;-72
2022/04/18 03:35:30;;;;;;;16.52;13.02;;;;;;;;;;5093247;28;20201;-72
2022/04/18 03:40:42;;;;;;;21.05;13.82;;;;;;;;;;5092808;28;20211;-72
2022/04/18 03:43:09;;;;;;;18.38;13.38;;;;;;;;;;5093013;28;20200;-72
2022/04/18 03:45:37;;;;;;;18.17;13.95;;;;;;;;;;5093548;28;20198;-72
2022/04/18 03:48:05;;;;;;;21.27;14.85;;;;;;;;;;5093207;28;20316;-72
2022/04/18 03:50:33;;;;;;;20.00;14.02;;;;;;;;;;5092843;28;20318;-71
2022/04/18 03:53:00;;;;;;;16.85;12.55;;;;;;;;;;5094976;28;20199;-72
2022/04/18 03:55:27;;;;;;;18.67;14.27;;;;;;;;;;5096116;28;20195;-72
2022/04/18 03:57:55;;;;;;;17.77;13.70;;;;;;;;;;5096069;28;20301;-72
2022/04/18 04:00:22;;;;;;;17.65;14.25;;;;;;;;;;5097132;28;20222;-69
2022/04/18 04:02:49;;;;;;;18.83;13.35;;;;;;;;;;5096000;28;20302;-72
2022/04/18 04:05:16;;;;;;;21.20;14.48;;;;;;;;;;5096300;28;20191;-72
2022/04/18 04:07:45;;;;;;;16.02;13.88;;;;;;;;;;5096294;28;20204;-72
2022/04/18 04:10:12;;;;;;;17.23;14.80;;;;;;;;;;5096660;28;20540;-72
2022/04/18 04:12:39;;;;;;;15.82;13.23;;;;;;;;;;5096289;28;20195;-72
2022/04/18 04:15:07;;;;;;;18.73;14.82;;;;;;;;;;5096393;28;20195;-72
2022/04/18 04:17:34;;;;;;;19.00;14.07;;;;;;;;;;5096277;28;20198;-72
2022/04/18 04:20:01;;;;;;;13.93;12.30;;;;;;;;;;5095630;28;20300;-72
2022/04/18 04:22:29;;;;;;;20.48;14.07;;;;;;;;;;5095569;28;20674;-72
2022/04/18 04:24:57;;;;;;;16.75;13.68;;;;;;;;;;5095843;28;20280;-72
2022/04/18 04:27:25;;;;;;;19.23;14.18;;;;;;;;;;5095939;28;20198;-72
2022/04/18 04:29:52;;;;;;;17.17;13.88;;;;;;;;;;5095869;28;20209;-71
2022/04/18 04:32:19;;;;;;;20.65;14.50;;;;;;;;;;5095650;28;20547;-72
2022/04/18 04:34:46;;;;;;;16.17;14.23;;;;;;;;;;5095657;28;20199;-74
2022/04/18 04:37:14;;;;;;;24.15;14.13;;;;;;;;;;5095733;28;20198;-71
2022/04/18 04:39:41;;;;;;;19.40;15.35;;;;;;;;;;5095124;28;20216;-72
2022/04/18 04:42:10;;;;;;;19.55;13.50;;;;;;;;;;5095209;28;20280;-72
2022/04/18 04:44:37;;;;;;;17.30;13.90;;;;;;;;;;5095227;28;20688;-72
2022/04/18 04:47:05;;;;;;;15.43;13.27;;;;;;;;;;5094981;28;20314;-72
2022/04/18 04:49:32;;;;;;;21.95;14.18;;;;;;;;;;5095022;28;20243;-72
2022/04/18 04:51:59;;;;;;;20.58;14.27;;;;;;;;;;5095665;28;20195;-72
2022/04/18 04:54:26;;;;;;;16.35;13.40;;;;;;;;;;5095325;28;20552;-72
2022/04/18 04:56:54;;;;;;;20.23;12.93;;;;;;;;;;5095541;28;20199;-72
2022/04/18 04:59:22;;;;;;;16.83;13.30;;;;;;;;;;5095273;28;20229;-72
2022/04/18 05:01:49;;;;;;;19.30;11.93;;;;;;;;;;5095443;28;20196;-72
2022/04/18 05:04:17;;;;;;;17.52;12.65;;;;;;;;;;5093910;28;20255;-72
2022/04/18 05:06:44;;;;;;;15.52;11.15;;;;;;;;;;5095067;28;20271;-72
2022/04/18 05:09:11;;;;;;;16.55;12.23;;;;;;;;;;5094589;28;20245;-73
2022/04/18 05:11:38;;;;;;;14.43;11.32;;;;;;;;;;5094739;28;20200;-73
2022/04/18 05:14:05;;;;;;;18.92;12.02;;;;;;;;;;5094609;28;20204;-72
2022/04/18 05:16:34;;;;;;;16.30;11.85;;;;;;;;;;5095124;28;20194;-73
2022/04/18 05:19:01;;;;;;;15.65;11.63;;;;;;;;;;5095147;28;20240;-72
2022/04/18 05:21:29;;;;;;;14.05;11.32;;;;;;;;;;5094499;28;20199;-73
2022/04/18 05:23:57;;;;;;;17.10;11.65;;;;;;;;;;5095084;28;20197;-72
2022/04/18 05:26:24;;;;;;;14.98;11.50;;;;;;;;;;5094446;28;20192;-72
2022/04/18 05:28:51;;;;;;;14.93;11.85;;;;;;;;;;5094787;28;20651;-72
2022/04/18 05:31:19;;;;;;;19.10;13.63;;;;;;;;;;5094297;28;20284;-72
2022/04/18 05:33:47;;;;;;;14.68;11.35;;;;;;;;;;5094968;28;20200;-73
2022/04/18 05:36:14;;;;;;;16.35;11.60;;;;;;;;;;5094385;28;20196;-72
2022/04/18 05:38:42;;;;;;;13.38;10.48;;;;;;;;;;5094161;28;20219;-72
2022/04/18 05:41:09;;;;;;;17.05;11.43;;;;;;;;;;5094195;28;20241;-72
2022/04/18 05:43:36;;;;;;;13.38;11.35;;;;;;;;;;5094820;28;20246;-72
2022/04/18 05:46:03;;;;;;;12.43;11.10;;;;;;;;;;5094227;28;20239;-73
2022/04/18 05:48:30;;;;;;;17.48;12.05;;;;;;;;;;5093832;28;20668;-73
2022/04/18 05:50:59;;;;;;;15.52;11.73;;;;;;;;;;5094673;28;20571;-72
2022/04/18 05:53:27;;;;;;;15.02;11.30;;;;;;;;;;5094468;28;20239;-73
2022/04/18 05:55:54;;;;;;;15.65;11.45;;;;;;;;;;5094142;28;20206;-69
2022/04/18 05:58:21;;;;;;;11.30;10.02;;;;;;;;;;5093876;28;20220;-83
2022/04/18 06:00:48;;;;;;;16.88;9.68;;;;;;;;;;5093928;28;20200;-72
2022/04/18 06:03:15;;;;;;;14.18;10.75;;;;;;;;;;5094216;28;20200;-72
2022/04/18 06:05:42;;;;;;;12.30;10.00;;;;;;;;;;5093986;28;20284;-72
2022/04/18 06:08:11;;;;;;;13.05;11.65;;;;;;;;;;5093586;28;20653;-72
2022/04/18 06:10:41;;;;;;;13.77;11.40;;;;;;;;;;5093862;28;20191;-73
2022/04/18 06:13:09;;;;;;;19.75;10.88;;;;;;;;;;5094134;28;20544;-73
2022/04/18 06:15:37;;;;;;;18.00;11.02;;;;;;;;;;5093263;28;20200;-73
2022/04/18 06:18:04;;;;;;;16.13;11.38;;;;;;;;;;5093990;28;20260;-73
2022/04/18 06:20:31;;;;;;;14.60;11.38;;;;;;;;;;5094149;28;20267;-73
2022/04/18 06:22:58;;;;;;;14.90;10.38;;;;;;;;;;5094209;28;20201;-73
2022/04/18 06:25:27;;;;;;;10.95;9.52;;;;;;;;;;5093884;28;20189;-73
2022/04/18 06:27:54;;;;;;;14.10;10.02;;;;;;;;;;5093948;28;20192;-73
2022/04/18 06:30:21;;;;;;;13.13;10.60;;;;;;;;;;5093489;28;20197;-73
2022/04/18 06:32:48;;;;;;;12.55;10.80;;;;;;;;;;5093904;28;20563;-73
2022/04/18 06:35:16;;;;;;;12.82;9.43;;;;;;;;;;5093702;28;20554;-73
2022/04/18 06:37:43;;;;;;;15.30;9.45;;;;;;;;;;5093798;28;20321;-73
2022/04/18 06:40:10;;;;;;;9.93;8.73;;;;;;;;;;5093589;28;20310;-73
2022/04/18 06:42:39;;;;;;;11.45;10.00;;;;;;;;;;5093882;28;20193;-73
2022/04/18 06:45:07;;;;;;;13.05;9.88;;;;;;;;;;5093861;28;20224;-74
2022/04/18 06:47:34;;;;;;;11.77;9.32;;;;;;;;;;5093747;28;20238;-73
2022/04/18 06:50:06;;;;;;;17.17;9.82;;;;;;;;;;5093324;28;20565;-73
2022/04/18 06:52:38;;;;;;;14.23;10.35;;;;;;;;;;5094072;28;20198;-73
2022/04/18 06:55:06;;;;;;;15.85;8.82;;;;;;;;;;5093327;28;20230;-73
2022/04/18 06:57:32;;;;;;;13.43;10.07;;;;;;;;;;5093646;28;20202;-73
2022/04/18 07:00:00;;;;;;;13.38;10.05;;;;;;;;;;5093434;28;20212;-73
2022/04/18 07:02:28;;;;;;;11.40;9.73;;;;;;;;;;5093390;28;20673;-73
2022/04/18 07:04:55;;;;;;;14.73;8.88;;;;;;;;;;5093120;28;20202;-73
2022/04/18 07:07:22;;;;;;;13.57;10.13;;;;;;;;;;5093684;28;20648;-73
2022/04/18 07:09:49;;;;;;;15.38;8.95;;;;;;;;;;5093473;28;20227;-73
2022/04/18 07:12:21;;;;;;;14.57;10.85;;;;;;;;;;5093542;28;20292;-73
2022/04/18 07:14:48;;;;;;;13.32;9.18;;;;;;;;;;5093150;28;20188;-73
2022/04/18 07:17:17;;;;;;;11.77;9.20;;;;;;;;;;5093228;28;20228;-73
2022/04/18 07:19:44;;;;;;;13.75;9.73;;;;;;;;;;5093041;28;20217;-72
2022/04/18 07:22:11;;;;;;;11.68;10.10;;;;;;;;;;5093634;28;20550;-73
2022/04/18 07:24:38;;;;;;;12.98;9.68;;;;;;;;;;5093412;28;20194;-73
2022/04/18 07:27:05;;;;;;;9.27;8.38;;;;;;;;;;5094544;28;20193;-73
2022/04/18 07:29:33;;;;;;;9.50;8.40;;;;;;;;;;5096913;28;20201;-73
2022/04/18 07:32:00;;;;;;;10.13;8.10;;;;;;;;;;5097032;28;20283;-73
2022/04/18 07:34:29;;;;;;;11.60;10.27;;;;;;;;;;5097275;28;20231;-72
2022/04/18 07:36:56;;;;;;;12.32;8.65;;;;;;;;;;5096889;28;20228;-72
2022/04/18 07:39:23;;;;;;;11.35;8.57;;;;;;;;;;5097349;28;20693;-73
2022/04/18 07:41:50;;;;;;;9.50;8.48;;;;;;;;;;5096521;28;20666;-73
2022/04/18 07:44:18;;;;;;;8.77;7.80;;;;;;;;;;5096859;28;20228;-73
2022/04/18 07:46:45;;;;;;;8.43;7.53;;;;;;;;;;5096201;28;20221;-73
2022/04/18 07:49:12;;;;;;;9.00;7.33;;;;;;;;;;5096548;28;20540;-73
2022/04/18 07:51:42;;;;;;;8.33;6.40;;;;;;;;;;5096379;28;20478;-73
2022/04/18 07:54:11;;;;;;;7.90;6.40;;;;;;;;;;5096745;28;20440;-73
2022/04/18 07:56:38;;;;;;;7.13;6.45;;;;;;;;;;5096163;28;20438;-73
2022/04/18 07:59:05;;;;;;;9.17;7.27;;;;;;;;;;5096569;28;20224;-73
2022/04/18 08:01:32;;;;;;;9.33;6.20;;;;;;;;;;5096517;28;20451;-73
2022/04/18 08:04:01;;;;;;;9.20;6.10;;;;;;;;;;5097208;28;20530;-73
2022/04/18 08:06:28;;;;;;;7.50;6.07;;;;;;;;;;5096115;28;20530;-73
2022/04/18 08:08:57;;;;;;;7.30;6.10;;;;;;;;;;5096650;28;20431;-73
2022/04/18 08:11:24;;;;;;;8.10;6.60;;;;;;;;;;5096284;28;20453;-73
2022/04/18 08:13:52;;;;;;;6.93;6.17;;;;;;;;;;5096274;28;20444;-73
2022/04/18 08:16:19;;;;;;;6.43;5.83;;;;;;;;;;5095870;28;20443;-73
2022/04/18 08:18:47;;;;;;;9.13;6.10;;;;;;;;;;5095726;28;20440;-73
2022/04/18 08:21:15;;;;;;;6.63;5.90;;;;;;;;;;5096032;28;20446;-73
2022/04/18 08:23:43;;;;;;;6.00;5.40;;;;;;;;;;5095781;28;20482;-73
2022/04/18 08:26:12;;;;;;;6.63;5.00;;;;;;;;;;5095732;28;20519;-73
2022/04/18 08:28:39;;;;;;;5.53;4.90;;;;;;;;;;5096202;28;20467;-73
2022/04/18 08:31:07;;;;;;;7.33;5.30;;;;;;;;;;5095905;28;20489;-73
2022/04/18 08:33:35;;;;;;;5.47;4.80;;;;;;;;;;5096403;28;20836;-73
2022/04/18 08:36:02;;;;;;;8.53;5.17;;;;;;;;;;5095723;28;20444;-73
2022/04/18 08:38:29;;;;;;;4.60;4.20;;;;;;;;;;5095197;28;20443;-73
2022/04/18 08:40:57;;;;;;;4.50;4.10;;;;;;;;;;5095276;28;20467;-73
2022/04/18 08:43:32;;;;;;;5.53;4.90;;;;;;;;;;5095326;28;20467;-73
2022/04/18 08:46:00;;;;;;;6.00;5.40;;;;;;;;;;5095520;28;20521;-73
2022/04/18 08:53:58;;;;;;;5.97;5.40;;;;;;;;;;5095425;28;20404;-73
2022/04/18 08:56:25;;;;;;;4.77;4.37;;;;;;;;;;5095347;28;20579;-73
2022/04/18 08:58:54;;;;;;;6.00;5.40;;;;;;;;;;5095822;28;20483;-73
2022/04/18 09:01:21;;;;;;;7.30;5.00;;;;;;;;;;5094934;28;20483;-73
2022/04/18 09:03:49;;;;;;;6.00;4.80;;;;;;;;;;5095456;28;20878;-74
2022/04/18 09:06:16;;;;;;;4.93;4.50;;;;;;;;;;5095422;28;20447;-73
2022/04/18 09:08:44;;;;;;;5.53;4.87;;;;;;;;;;5094968;28;20440;-73
2022/04/18 09:11:12;;;;;;;6.20;5.60;;;;;;;;;;5094979;28;20963;-73
2022/04/18 09:13:43;;;;;;;6.53;5.27;;;;;;;;;;5095133;28;20451;-73
2022/04/18 09:16:17;;;;;;;6.27;5.67;;;;;;;;;;5094789;28;20943;-73
2022/04/18 09:18:45;;;;;;;6.27;5.67;;;;;;;;;;5095055;28;20905;-73
2022/04/18 09:21:12;;;;;;;10.47;5.90;;;;;;;;;;5095148;28;20529;-73
2022/04/18 09:23:39;;;;;;;6.77;5.73;;;;;;;;;;5094910;28;20448;-73
2022/04/18 09:26:08;;;;;;;9.60;6.40;;;;;;;;;;5094675;28;20932;-74
2022/04/18 09:28:36;;;;;;;8.57;5.00;;;;;;;;;;5095022;28;20805;-74
2022/04/18 09:31:05;;;;;;;5.60;5.10;;;;;;;;;;5094808;28;20448;-73
2022/04/18 09:33:35;;;;;;;5.50;5.07;;;;;;;;;;5094446;28;20455;-73
2022/04/18 09:36:06;;;;;;;7.80;5.80;;;;;;;;;;5094414;28;20446;-73
2022/04/18 09:38:37;;;;;;;7.17;5.20;;;;;;;;;;5094717;28;20842;-74
2022/04/18 09:41:04;;;;;;;5.90;5.33;;;;;;;;;;5094789;28;20950;-73
2022/04/18 09:43:38;;;;;;;7.60;6.20;;;;;;;;;;5094517;28;20865;-73
2022/04/18 09:46:05;;;;;;;6.40;5.80;;;;;;;;;;5094573;28;20475;-73
2022/04/18 09:48:34;;;;;;;8.73;5.40;;;;;;;;;;5094479;28;20451;-73
2022/04/18 09:51:07;;;;;;;6.20;5.10;;;;;;;;;;5093879;28;20792;-73
2022/04/18 09:53:35;;;;;;;6.60;4.63;;;;;;;;;;5094546;28;20433;-73
2022/04/18 09:56:02;;;;;;;5.17;4.60;;;;;;;;;;5094422;28;20445;-73
2022/04/18 09:58:29;;;;;;;5.40;4.90;;;;;;;;;;5093902;28;20446;-73
2022/04/18 10:00:56;;;;;;;6.70;5.37;;;;;;;;;;5094249;28;20634;-73
2022/04/18 10:03:24;;;;;;;12.03;6.80;;;;;;;;;;5094388;28;20472;-73
2022/04/18 10:05:52;;;;;;;10.67;6.10;;;;;;;;;;5094419;28;20879;-73
2022/04/18 10:08:20;;;;;;;7.67;6.10;;;;;;;;;;5094057;28;20446;-73
2022/04/18 10:10:48;;;;;;;6.93;6.23;;;;;;;;;;5093849;28;20858;-73
2022/04/18 10:13:15;;;;;;;6.60;5.43;;;;;;;;;;5093958;28;20451;-73
2022/04/18 10:15:43;;;;;;;10.40;6.40;;;;;;;;;;5093622;28;20534;-74
2022/04/18 10:18:11;;;;;;;6.70;6.03;;;;;;;;;;5093865;28;20980;-74
2022/04/18 10:20:46;;;;;;;6.57;5.80;;;;;;;;;;5093907;28;20477;-75
2022/04/18 10:23:29;;;;;;;7.70;5.97;;;;;;;;;;5094141;28;20424;-73
2022/04/18 10:26:11;;;;;;;6.13;5.30;;;;;;;;;;5094168;28;20433;-71
2022/04/18 10:28:39;;;;;;;6.23;5.50;;;;;;;;;;5092238;28;20463;-73
2022/04/18 10:31:09;;;;;;;6.00;5.50;;;;;;;;;;5093517;28;20527;-72
2022/04/18 10:33:37;;;;;;;7.10;5.27;;;;;;;;;;5093824;28;20527;-72
2022/04/18 10:36:05;;;;;;;5.53;4.60;;;;;;;;;;5093374;28;20447;-74
2022/04/18 10:38:36;;;;;;;5.67;5.17;;;;;;;;;;5093764;28;20497;-73
2022/04/18 10:41:16;;;;;;;5.50;4.47;;;;;;;;;;5093922;28;20662;-74
2022/04/18 10:44:00;;;;;;;4.97;4.00;;;;;;;;;;5093389;28;20471;-74
2022/04/18 10:46:28;;;;;;;4.40;4.00;;;;;;;;;;5093692;28;20472;-74
2022/04/18 10:48:56;;;;;;;4.33;3.83;;;;;;;;;;5093611;28;20470;-74
2022/04/18 10:51:30;;;;;;;4.90;3.80;;;;;;;;;;5093336;28;20456;-74
2022/04/18 10:54:10;;;;;;;3.77;3.33;;;;;;;;;;5093959;28;20436;-74
2022/04/18 10:56:53;;;;;;;4.03;3.63;;;;;;;;;;5093674;28;20520;-74
2022/04/18 10:59:21;;;;;;;5.60;3.90;;;;;;;;;;5093558;28;20435;-74
2022/04/18 11:01:49;;;;;;;5.13;4.63;;;;;;;;;;5095415;28;20550;-74
2022/04/18 11:04:16;;;;;;;5.40;4.90;;;;;;;;;;5097496;28;20482;-74
2022/04/18 11:06:47;;;;;;;6.50;5.30;;;;;;;;;;5097569;28;20455;-74
2022/04/18 11:09:17;;;;;;;7.63;5.60;;;;;;;;;;5097608;28;20446;-74
2022/04/18 11:11:47;;;;;;;6.50;5.33;;;;;;;;;;5097261;28;20454;-73
2022/04/18 11:14:18;;;;;;;6.83;4.50;;;;;;;;;;5097646;28;20443;-73
2022/04/18 11:16:53;;;;;;;4.40;4.00;;;;;;;;;;5097279;28;20444;-73
2022/04/18 11:19:23;;;;;;;4.40;4.00;;;;;;;;;;5097627;28;20446;-73
2022/04/18 11:22:10;;;;;;;4.23;3.83;;;;;;;;;;5096970;28;20479;-74
2022/04/18 11:24:39;;;;;;;4.87;4.40;;;;;;;;;;5097145;28;20471;-74
2022/04/18 11:27:08;;;;;;;4.53;4.13;;;;;;;;;;5097023;28;20441;-75
2022/04/18 11:29:35;;;;;;;4.33;3.97;;;;;;;;;;5096824;28;20963;-75
2022/04/18 11:32:04;;;;;;;4.67;4.13;;;;;;;;;;5097355;28;20439;-73
2022/04/18 11:34:32;;;;;;;6.17;4.80;;;;;;;;;;5096150;28;20922;-75
2022/04/18 11:37:00;;;;;;;5.10;4.67;;;;;;;;;;5096892;28;20807;-75
2022/04/18 11:39:43;;;;;;;5.10;4.30;;;;;;;;;;5096910;28;20501;-74
2022/04/18 11:42:11;;;;;;;4.53;4.13;;;;;;;;;;5096876;28;20469;-74
2022/04/18 11:44:41;;;;;;;4.97;4.47;;;;;;;;;;5096746;28;20439;-75
2022/04/18 11:47:09;;;;;;;5.67;5.17;;;;;;;;;;5096832;28;20478;-74
2022/04/18 11:49:38;;;;;;;5.77;5.10;;;;;;;;;;5097010;28;20448;-74
2022/04/18 11:52:05;;;;;;;7.97;5.60;;;;;;;;;;5096452;28;20886;-74
2022/04/18 11:54:32;;;;;;;8.90;4.40;;;;;;;;;;5096551;28;20497;-74
2022/04/18 11:57:02;;;;;;;4.73;4.33;;;;;;;;;;5096456;28;20444;-74
2022/04/18 11:59:29;;;;;;;4.63;4.23;;;;;;;;;;5096111;28;20441;-74
2022/04/18 12:07:27;;;;;;;5.13;4.60;;;;;;;;;;5096215;28;20411;-74
2022/04/18 12:09:54;;;;;;;5.07;4.50;;;;;;;;;;5096390;28;20447;-74
2022/04/18 12:12:32;;;;;;;5.13;4.63;;;;;;;;;;5095821;28;20543;-75
2022/04/18 12:15:02;;;;;;;5.33;4.93;;;;;;;;;;5096209;28;20466;-74
2022/04/18 12:17:30;;;;;;;4.97;4.47;;;;;;;;;;5096536;28;20493;-74
2022/04/18 12:19:57;;;;;;;5.60;4.83;;;;;;;;;;5096366;28;20442;-74
2022/04/18 12:22:25;;;;;;;5.63;4.33;;;;;;;;;;5096153;28;20440;-75
2022/04/18 12:24:52;;;;;;;4.80;4.40;;;;;;;;;;5095626;28;20494;-74
2022/04/18 12:27:37;;;;;;;5.47;4.53;;;;;;;;;;5096252;28;20437;-74
2022/04/18 12:30:07;;;;;;;4.50;4.10;;;;;;;;;;5096017;28;20448;-74
2022/04/18 12:32:38;;;;;;;3.97;3.60;;;;;;;;;;5095596;28;20443;-75
2022/04/18 12:35:06;;;;;;;4.13;3.63;;;;;;;;;;5095388;28;20436;-76
2022/04/18 12:37:33;;;;;;;3.90;3.50;;;;;;;;;;5095437;28;20930;-75
2022/04/18 12:40:13;;;;;;;4.37;3.50;;;;;;;;;;5095366;28;20436;-75
2022/04/18 12:42:41;;;;;;;5.97;3.60;;;;;;;;;;5095368;28;20456;-76
2022/04/18 12:45:10;;;;;;;4.03;3.20;;;;;;;;;;5095414;28;20532;-76
2022/04/18 12:47:39;;;;;;;6.20;3.97;;;;;;;;;;5095115;28;20575;-76
2022/04/18 12:50:13;;;;;;;4.93;3.90;;;;;;;;;;5095470;28;20443;-76
2022/04/18 12:52:49;;;;;;;4.03;3.70;;;;;;;;;;5095649;28;20445;-76
2022/04/18 12:55:16;;;;;;;4.30;3.90;;;;;;;;;;5094782;28;20444;-76
2022/04/18 12:57:48;;;;;;;9.93;7.90;;;;;;;;;;5095384;28;20453;-76
2022/04/18 13:00:18;;;;;;;12.00;10.73;;;;;;;;;;5094873;28;20433;-75
2022/04/18 13:02:58;;;;;;;7.10;5.40;;;;;;;;;;5094752;28;20935;-76
2022/04/18 13:05:26;;;;;;;45.33;29.43;;;;;;;;;;5094994;28;20443;-76
2022/04/18 13:07:53;;;;;;;8.13;5.93;;;;;;;;;;5095128;28;20459;-76
2022/04/18 13:10:27;;;;;;;35.63;28.80;;;;;;;;;;5094978;28;20446;-76
2022/04/18 13:13:00;;;;;;;20.73;15.80;;;;;;;;;;5095400;28;20434;-76
2022/04/18 13:15:28;;;;;;;267.70;163.37;;;;;;;;;;5095525;28;20518;-76
2022/04/18 13:18:01;;;;;;;30.90;19.50;;;;;;;;;;5094667;28;20543;-75
2022/04/18 13:20:29;;;;;;;15.20;12.07;;;;;;;;;;5094491;28;20429;-76
2022/04/18 13:22:56;;;;;;;11.43;9.43;;;;;;;;;;5094840;28;20486;-76
2022/04/18 13:25:23;;;;;;;83.83;63.27;;;;;;;;;;5093716;28;20457;-75
2022/04/18 13:27:50;;;;;;;126.60;83.43;;;;;;;;;;5094790;28;20450;-75
2022/04/18 13:30:18;;;;;;;10.57;7.20;;;;;;;;;;5094300;28;20449;-76
2022/04/18 13:32:46;;;;;;;4.10;3.80;;;;;;;;;;5094766;28;20463;-75
2022/04/18 13:35:13;;;;;;;234.50;163.33;;;;;;;;;;5094456;28;20540;-76
2022/04/18 13:37:41;;;;;;;33.90;25.53;;;;;;;;;;5094298;28;20445;-76
2022/04/18 13:40:08;;;;;;;6.33;5.50;;;;;;;;;;5094138;28;20455;-75
2022/04/18 13:42:35;;;;;;;10.80;7.50;;;;;;;;;;5094599;28;20476;-76
2022/04/18 13:45:05;;;;;;;4.10;3.70;;;;;;;;;;5094439;28;20452;-76
2022/04/18 13:47:39;;;;;;;5.03;4.60;;;;;;;;;;5144284;27;20298;-74
2022/04/18 13:50:07;;;;;;;4.43;3.50;;;;;;;;;;5111180;28;20444;-76
2022/04/18 13:52:34;;;;;;;4.43;4.07;;;;;;;;;;5111007;28;20459;-73
2022/04/18 13:55:02;;;;;;;9.73;5.33;;;;;;;;;;5111134;28;20448;-73
2022/04/18 13:57:29;;;;;;;6.97;6.30;;;;;;;;;;5110844;28;20451;-76
2022/04/18 13:59:56;;;;;;;7.33;4.00;;;;;;;;;;5111899;28;20534;-75
2022/04/18 14:02:29;;;;;;;7.10;5.20;;;;;;;;;;5110944;28;20446;-75
2022/04/18 14:04:58;;;;;;;6.40;5.20;;;;;;;;;;5111003;28;20493;-75
2022/04/18 14:07:25;;;;;;;5.33;3.60;;;;;;;;;;5110647;28;20550;-75
2022/04/18 14:09:53;;;;;;;5.70;4.80;;;;;;;;;;5110491;28;20448;-75
2022/04/18 14:12:20;;;;;;;5.17;4.67;;;;;;;;;;5110708;28;20450;-75
2022/04/18 14:20:25;;;;;;;4.20;3.83;;;;;;;;;;5110545;28;20450;-75
2022/04/18 14:22:53;;;;;;;6.17;5.57;;;;;;;;;;5110754;28;20425;-75
2022/04/18 14:25:21;;;;;;;9.87;4.17;;;;;;;;;;5111055;28;20456;-76
2022/04/18 14:27:48;;;;;;;3.50;3.20;;;;;;;;;;5110171;28;20449;-75
2022/04/18 14:30:15;;;;;;;4.60;3.50;;;;;;;;;;5110590;28;20477;-75
2022/04/18 14:32:43;;;;;;;3.17;2.83;;;;;;;;;;5110226;28;20808;-74
2022/04/18 14:35:11;;;;;;;3.50;3.00;;;;;;;;;;5110320;28;20442;-75
2022/04/18 14:37:40;;;;;;;3.67;3.37;;;;;;;;;;5110122;28;20527;-75
2022/04/18 14:40:08;;;;;;;3.83;3.40;;;;;;;;;;5110630;28;20472;-75
2022/04/18 14:42:35;;;;;;;4.33;3.77;;;;;;;;;;5109864;28;20433;-76
2022/04/18 14:45:07;;;;;;;4.63;4.17;;;;;;;;;;5110142;28;20535;-77
2022/04/18 14:47:35;;;;;;;6.23;5.17;;;;;;;;;;5109605;28;20521;-75
2022/04/18 14:50:02;;;;;;;3.33;3.03;;;;;;;;;;5110133;28;20453;-76
2022/04/18 14:52:29;;;;;;;5.70;3.10;;;;;;;;;;5109610;28;20545;-76
2022/04/18 14:54:57;;;;;;;3.67;2.63;;;;;;;;;;5110240;28;20445;-75
2022/04/18 14:57:25;;;;;;;4.17;3.77;;;;;;;;;;5105342;28;20475;-75
2022/04/18 14:59:53;;;;;;;4.00;3.40;;;;;;;;;;5096701;28;20447;-75
2022/04/18 15:02:21;;;;;;;3.60;3.30;;;;;;;;;;5096311;28;20450;-75
2022/04/18 15:04:49;;;;;;;3.17;2.87;;;;;;;;;;5096158;28;20488;-75